Time;durP1;ratioP1;P1;durP2;ratioP2;P2;SDS_P1;SDS_P2;PMS_P1;PMS_P2;Temp;Humidity;BMP_temperature;BMP_pressure;BME280_temperature;BME280_humidity;BME280_pressure;Samples;Min_cycle;Max_cycle;Signal;HPM_P1;HPM_P2
2023/08/07 00:00:41;;;;;;;8.15;5.47;;;14.90;99.90;;;;;;5050375;28;20111;-70
2023/08/07 00:03:07;;;;;;;8.48;5.65;;;14.90;99.90;;;;;;5045078;28;20108;-70
2023/08/07 00:05:32;;;;;;;10.35;5.43;;;14.90;99.90;;;;;;5032152;28;20052;-70
2023/08/07 00:07:58;;;;;;;7.50;5.20;;;14.90;99.90;;;;;;5049487;28;20402;-70
2023/08/07 00:10:24;;;;;;;5.90;4.22;;;14.90;99.90;;;;;;5044264;23;20050;-78
2023/08/07 00:12:50;;;;;;;7.15;4.70;;;14.90;99.90;;;;;;5014976;28;20124;-78
2023/08/07 00:15:16;;;;;;;8.45;4.72;;;14.90;99.90;;;;;;5021353;28;20037;-78
2023/08/07 00:17:42;;;;;;;9.00;4.75;;;14.90;99.90;;;;;;5023935;28;20370;-78
2023/08/07 00:20:08;;;;;;;6.82;4.00;;;14.90;99.90;;;;;;4990269;28;20046;-78
2023/08/07 00:22:34;;;;;;;8.48;4.65;;;14.90;99.90;;;;;;4994722;28;20128;-78
2023/08/07 00:24:59;;;;;;;8.13;4.53;;;14.90;99.90;;;;;;4993072;28;20133;-78
2023/08/07 00:27:26;;;;;;;6.65;4.00;;;14.90;99.90;;;;;;5013915;28;20037;-78
2023/08/07 00:29:52;;;;;;;8.57;3.90;;;14.90;99.90;;;;;;5000917;28;20124;-78
2023/08/07 00:32:17;;;;;;;8.95;3.80;;;14.90;99.90;;;;;;4980816;28;20080;-78
2023/08/07 00:34:43;;;;;;;6.55;4.25;;;14.90;99.90;;;;;;5004890;28;20037;-78
2023/08/07 00:37:09;;;;;;;6.35;3.97;;;14.90;99.90;;;;;;4999586;28;20034;-78
2023/08/07 00:39:36;;;;;;;6.05;3.92;;;14.90;99.90;;;;;;4989368;28;20095;-78
2023/08/07 00:42:01;;;;;;;9.07;3.67;;;14.90;99.90;;;;;;4996082;28;20475;-78
2023/08/07 00:44:27;;;;;;;9.30;4.20;;;14.80;99.90;;;;;;5005081;28;20121;-78
2023/08/07 00:46:54;;;;;;;8.55;4.20;;;14.90;99.90;;;;;;5004856;28;20073;-79
2023/08/07 00:49:20;;;;;;;7.68;4.47;;;14.90;99.90;;;;;;4981575;28;20208;-81
2023/08/07 00:51:50;;;;;;;8.70;4.40;;;14.80;99.90;;;;;;5000303;28;20513;-78
2023/08/07 00:54:19;;;;;;;9.27;4.35;;;15.30;99.90;;;;;;5019912;28;20167;-80
2023/08/07 00:56:45;;;;;;;9.07;4.20;;;14.80;99.90;;;;;;5006767;28;20045;-79
2023/08/07 00:59:12;;;;;;;7.30;3.85;;;14.70;99.90;;;;;;4986544;28;20049;-78
2023/08/07 01:01:38;;;;;;;11.07;4.60;;;14.80;99.90;;;;;;5008488;28;20425;-80
2023/08/07 01:04:04;;;;;;;8.00;4.00;;;14.80;99.90;;;;;;4987003;28;20038;-80
2023/08/07 01:06:29;;;;;;;10.00;4.20;;;14.80;99.90;;;;;;4995605;28;20030;-78
2023/08/07 01:08:57;;;;;;;11.20;4.20;;;14.80;99.90;;;;;;5025027;28;20037;-79
2023/08/07 01:11:48;;;;;;;10.55;4.10;;;14.80;99.90;;;;;;4995967;28;20045;-78
2023/08/07 01:14:20;;;;;;;10.57;4.40;;;14.80;99.90;;;;;;5020768;28;20069;-79
2023/08/07 01:16:55;;;;;;;8.93;3.72;;;14.80;99.90;;;;;;4988096;28;20486;-79
2023/08/07 01:19:27;;;;;;;12.98;4.20;;;14.80;99.90;;;;;;4986165;28;20097;-79
2023/08/07 01:22:07;;;;;;;9.60;3.85;;;14.80;99.90;;;;;;4985625;28;20042;-79
2023/08/07 01:24:35;;;;;;;12.55;3.75;;;14.80;99.90;;;;;;4987812;28;20038;-79
2023/08/07 01:27:32;;;;;;;12.40;3.78;;;14.80;99.90;;;;;;4991882;28;20069;-79
2023/08/07 01:30:26;;;;;;;12.55;4.18;;;14.90;99.90;;;;;;4997141;28;20057;-79
2023/08/07 01:33:08;;;;;;;11.52;4.32;;;14.80;99.90;;;;;;4978938;28;20120;-79
2023/08/07 01:35:40;;;;;;;12.15;4.03;;;14.80;99.90;;;;;;4990347;28;20044;-79
2023/08/07 01:38:07;;;;;;;16.15;4.30;;;14.80;99.90;;;;;;5002323;28;20038;-79
2023/08/07 01:40:34;;;;;;;11.52;3.80;;;14.80;99.90;;;;;;5008644;28;20041;-79
2023/08/07 01:43:01;;;;;;;12.82;3.47;;;14.80;99.90;;;;;;5003936;28;20129;-81
2023/08/07 01:45:28;;;;;;;10.13;4.07;;;14.80;99.90;;;;;;5002522;28;20034;-80
2023/08/07 01:47:54;;;;;;;9.98;3.38;;;14.80;99.90;;;;;;4982588;28;20030;-80
2023/08/07 01:50:21;;;;;;;9.13;3.47;;;14.80;99.90;;;;;;5013351;28;20406;-79
2023/08/07 01:52:47;;;;;;;10.02;3.10;;;14.80;99.90;;;;;;4997331;28;20053;-79
2023/08/07 01:55:19;;;;;;;12.40;3.38;;;14.70;99.90;;;;;;5007046;28;20049;-79
2023/08/07 01:57:45;;;;;;;9.43;3.50;;;14.70;99.90;;;;;;4995288;28;20061;-80
2023/08/07 02:00:11;;;;;;;14.00;3.50;;;14.70;99.90;;;;;;5005068;28;20041;-80
2023/08/07 02:02:41;;;;;;;10.32;3.33;;;14.70;99.90;;;;;;4997828;28;20535;-79
2023/08/07 02:05:07;;;;;;;10.85;3.72;;;14.70;99.90;;;;;;5006134;28;20034;-79
2023/08/07 02:07:32;;;;;;;9.05;3.53;;;14.80;99.90;;;;;;4981100;28;20559;-80
2023/08/07 02:09:58;;;;;;;12.90;3.30;;;14.80;99.90;;;;;;4985857;28;20099;-80
2023/08/07 02:12:29;;;;;;;11.30;3.47;;;14.90;99.90;;;;;;5005882;28;20104;-79
2023/08/07 02:14:55;;;;;;;12.57;3.13;;;14.70;99.90;;;;;;5006201;28;20045;-80
2023/08/07 02:17:22;;;;;;;13.27;3.42;;;14.70;99.90;;;;;;5011605;28;20041;-80
2023/08/07 02:19:48;;;;;;;11.63;3.30;;;14.70;99.90;;;;;;4994059;28;20056;-80
2023/08/07 02:22:13;;;;;;;11.02;3.13;;;14.70;99.90;;;;;;4982890;28;20034;-80
2023/08/07 02:24:39;;;;;;;12.30;3.10;;;14.70;99.90;;;;;;4997051;28;20615;-80
2023/08/07 02:27:05;;;;;;;11.95;2.92;;;14.70;99.90;;;;;;4983729;28;20088;-79
2023/08/07 02:29:34;;;;;;;13.80;2.85;;;14.70;99.90;;;;;;4980379;28;20034;-79
2023/08/07 02:32:01;;;;;;;12.35;2.80;;;14.70;99.90;;;;;;5015189;28;20046;-80
2023/08/07 02:34:27;;;;;;;10.40;2.97;;;14.60;99.90;;;;;;4999711;28;20338;-80
2023/08/07 02:36:53;;;;;;;13.02;2.45;;;14.60;99.90;;;;;;4984256;28;20044;-80
2023/08/07 02:39:18;;;;;;;16.42;3.05;;;14.70;99.90;;;;;;4996315;28;20225;-80
2023/08/07 02:41:44;;;;;;;11.25;2.58;;;14.60;99.90;;;;;;5019887;28;20383;-79
2023/08/07 02:44:10;;;;;;;9.85;2.50;;;14.80;99.90;;;;;;5001500;28;20041;-80
2023/08/07 02:46:36;;;;;;;11.23;2.30;;;14.60;99.90;;;;;;5030457;28;20047;-79
2023/08/07 02:49:02;;;;;;;7.88;1.95;;;15.10;99.90;;;;;;5017199;28;20038;-79
2023/08/07 02:51:27;;;;;;;7.35;2.10;;;14.60;99.90;;;;;;4999424;28;20042;-79
2023/08/07 02:53:53;;;;;;;6.97;2.20;;;14.60;99.90;;;;;;5008350;28;20120;-79
2023/08/07 02:56:22;;;;;;;7.30;2.58;;;14.60;99.90;;;;;;5000929;28;20077;-79
2023/08/07 02:58:48;;;;;;;10.18;2.42;;;14.50;99.90;;;;;;4997810;28;20077;-81
2023/08/07 03:01:15;;;;;;;6.47;2.33;;;14.50;99.90;;;;;;5012709;28;20394;-80
2023/08/07 03:03:42;;;;;;;9.52;2.33;;;14.50;99.90;;;;;;5001019;28;20530;-80
2023/08/07 03:06:08;;;;;;;8.43;2.50;;;14.40;99.90;;;;;;4990791;28;20042;-80
2023/08/07 03:08:34;;;;;;;11.30;2.60;;;14.90;99.90;;;;;;5003487;28;20092;-79
2023/08/07 03:10:59;;;;;;;10.15;2.30;;;14.50;99.90;;;;;;4995222;28;20445;-79
2023/08/07 03:13:26;;;;;;;10.20;2.35;;;14.50;99.90;;;;;;5006932;28;20088;-80
2023/08/07 03:16:02;;;;;;;6.50;2.38;;;15.00;99.90;;;;;;5029655;28;20037;-80
2023/08/07 03:18:28;;;;;;;9.45;2.42;;;14.80;99.90;;;;;;5015139;28;20041;-80
2023/08/07 03:20:57;;;;;;;9.68;2.25;;;14.50;99.90;;;;;;4996232;28;20053;-79
2023/08/07 03:23:28;;;;;;;6.00;2.20;;;14.30;99.90;;;;;;5016037;28;20052;-79
2023/08/07 03:26:09;;;;;;;8.95;2.55;;;14.50;99.90;;;;;;5017987;28;20038;-79
2023/08/07 03:28:35;;;;;;;10.80;2.60;;;14.50;99.90;;;;;;4992760;28;20089;-81
2023/08/07 03:31:01;;;;;;;11.25;2.35;;;14.60;99.90;;;;;;5011813;28;20113;-79
2023/08/07 03:33:27;;;;;;;12.23;2.55;;;14.50;99.90;;;;;;4994164;28;20042;-80
2023/08/07 03:35:53;;;;;;;11.02;2.40;;;14.40;99.90;;;;;;5022554;28;20397;-79
2023/08/07 03:38:19;;;;;;;10.98;2.70;;;14.40;99.90;;;;;;4995015;28;20164;-80
2023/08/07 03:40:45;;;;;;;11.93;2.70;;;14.50;99.90;;;;;;5009372;28;20452;-81
2023/08/07 03:43:11;;;;;;;11.90;2.65;;;14.40;99.90;;;;;;4997007;28;20092;-80
2023/08/07 03:45:37;;;;;;;10.40;2.67;;;14.40;99.90;;;;;;4984155;28;20057;-80
2023/08/07 03:48:02;;;;;;;6.30;2.50;;;14.50;99.90;;;;;;5004881;28;20038;-81
2023/08/07 03:50:30;;;;;;;14.98;3.15;;;14.40;99.90;;;;;;5011276;28;20029;-81
2023/08/07 03:52:56;;;;;;;11.32;2.90;;;14.40;99.90;;;;;;4998766;28;20053;-80
2023/08/07 03:55:21;;;;;;;12.70;2.70;;;14.40;99.90;;;;;;5017920;28;20037;-80
2023/08/07 03:57:47;;;;;;;12.02;2.58;;;14.40;99.90;;;;;;5009587;28;20037;-80
2023/08/07 04:00:13;;;;;;;15.93;2.97;;;14.50;99.90;;;;;;4994774;28;20038;-78
2023/08/07 04:02:39;;;;;;;10.07;2.90;;;14.40;99.90;;;;;;4994891;28;20133;-78
2023/08/07 04:05:05;;;;;;;13.25;2.92;;;14.40;99.90;;;;;;5019847;28;20460;-78
2023/08/07 04:07:33;;;;;;;12.48;2.72;;;14.40;99.90;;;;;;5014468;28;20073;-79
2023/08/07 04:09:59;;;;;;;8.25;2.58;;;14.50;99.90;;;;;;5021625;28;20100;-79
2023/08/07 04:12:24;;;;;;;8.50;2.00;;;14.50;99.90;;;;;;5017837;28;20065;-79
2023/08/07 04:14:50;;;;;;;7.95;2.10;;;14.90;99.90;;;;;;5018060;28;20036;-80
2023/08/07 04:17:16;;;;;;;6.68;1.90;;;14.50;99.90;;;;;;5019762;28;20556;-78
2023/08/07 04:19:41;;;;;;;5.03;2.08;;;14.50;99.90;;;;;;5011341;28;20052;-77
2023/08/07 04:22:07;;;;;;;7.30;2.13;;;14.40;99.90;;;;;;5020786;28;20061;-78
2023/08/07 04:24:33;;;;;;;7.60;2.00;;;14.70;99.90;;;;;;5009906;28;20065;-78
2023/08/07 04:26:58;;;;;;;10.10;2.15;;;14.40;99.90;;;;;;4992577;28;20037;-78
2023/08/07 04:29:24;;;;;;;7.32;2.28;;;14.40;99.90;;;;;;4990612;28;20210;-78
2023/08/07 04:31:50;;;;;;;7.90;2.15;;;14.40;99.90;;;;;;5005465;28;20033;-78
2023/08/07 04:34:15;;;;;;;6.22;2.22;;;14.50;99.90;;;;;;4993811;28;20056;-79
2023/08/07 04:36:41;;;;;;;8.95;2.40;;;14.60;99.90;;;;;;4999897;28;20490;-79
2023/08/07 04:39:07;;;;;;;8.65;2.50;;;14.50;99.90;;;;;;4993933;28;20038;-79
2023/08/07 04:41:33;;;;;;;8.60;2.58;;;14.50;99.90;;;;;;4990864;28;20040;-80
2023/08/07 04:43:58;;;;;;;8.57;2.45;;;14.50;99.90;;;;;;5010078;28;20042;-79
2023/08/07 04:46:24;;;;;;;10.10;2.90;;;14.50;99.90;;;;;;5003918;28;20416;-79
2023/08/07 04:48:50;;;;;;;6.82;2.55;;;14.50;99.90;;;;;;4994876;28;20066;-80
2023/08/07 04:51:16;;;;;;;6.45;2.70;;;14.50;99.90;;;;;;5001774;28;20100;-79
2023/08/07 04:53:41;;;;;;;13.00;3.30;;;14.50;99.90;;;;;;4982391;28;20123;-79
2023/08/07 04:56:07;;;;;;;10.95;3.10;;;14.70;99.90;;;;;;5003475;28;20077;-79
2023/08/07 04:58:33;;;;;;;9.77;3.08;;;14.90;99.90;;;;;;5011765;28;20054;-79
2023/08/07 05:00:59;;;;;;;10.70;3.42;;;14.70;99.90;;;;;;5009440;28;20057;-79
2023/08/07 05:03:30;;;;;;;16.23;3.80;;;14.60;99.90;;;;;;4988119;28;20125;-79
2023/08/07 05:05:58;;;;;;;;;;;14.60;99.90;;;;;;4994610;28;20586;-79
2023/08/07 05:08:23;;;;;;;11.23;3.17;;;14.60;99.90;;;;;;5019360;28;20004;-78
2023/08/07 05:10:49;;;;;;;13.40;3.67;;;14.90;99.90;;;;;;4993911;28;20046;-78
2023/08/07 05:13:15;;;;;;;17.00;3.83;;;14.60;99.90;;;;;;5023349;28;20485;-78
2023/08/07 05:15:40;;;;;;;12.70;3.42;;;14.80;99.90;;;;;;5016334;28;20048;-78
2023/08/07 05:18:06;;;;;;;13.10;3.78;;;15.10;99.90;;;;;;4993141;28;20054;-77
2023/08/07 05:20:32;;;;;;;13.35;3.22;;;14.70;99.90;;;;;;5009072;28;20079;-77
2023/08/07 05:22:58;;;;;;;7.53;3.17;;;14.70;99.90;;;;;;4978317;28;20247;-78
2023/08/07 05:25:23;;;;;;;16.95;3.58;;;14.70;99.90;;;;;;4996969;28;20045;-78
2023/08/07 05:27:49;;;;;;;11.13;3.20;;;14.80;99.90;;;;;;4996254;28;20034;-77
2023/08/07 05:30:15;;;;;;;7.82;3.10;;;14.80;99.90;;;;;;4994454;28;20025;-77
2023/08/07 05:32:41;;;;;;;7.60;3.10;;;14.80;99.90;;;;;;4995985;28;20100;-77
2023/08/07 05:35:07;;;;;;;8.68;3.10;;;14.80;99.90;;;;;;4996729;28;20049;-77
2023/08/07 05:37:35;;;;;;;10.40;3.45;;;14.80;99.90;;;;;;5003208;28;20060;-77
2023/08/07 05:40:01;;;;;;;8.93;3.42;;;14.70;99.90;;;;;;4980141;28;20042;-77
2023/08/07 05:42:27;;;;;;;12.00;3.40;;;14.80;99.90;;;;;;4996157;28;20045;-77
2023/08/07 05:44:53;;;;;;;9.82;3.20;;;14.80;99.90;;;;;;5014297;28;20037;-77
2023/08/07 05:47:19;;;;;;;10.60;3.95;;;14.90;99.90;;;;;;5022763;28;20071;-76
2023/08/07 05:49:45;;;;;;;11.35;3.50;;;15.30;99.90;;;;;;5000398;28;20033;-76
2023/08/07 05:52:10;;;;;;;13.95;3.55;;;14.80;99.90;;;;;;5015562;28;20119;-77
2023/08/07 05:54:36;;;;;;;11.73;3.50;;;14.80;99.90;;;;;;5023124;28;20452;-77
2023/08/07 05:57:01;;;;;;;13.20;3.70;;;14.80;99.90;;;;;;5006259;28;20049;-77
2023/08/07 05:59:27;;;;;;;14.27;3.72;;;14.80;99.90;;;;;;4999912;28;20203;-77
2023/08/07 06:01:53;;;;;;;11.07;3.72;;;14.80;99.90;;;;;;5001915;28;20434;-77
2023/08/07 06:04:19;;;;;;;12.65;3.33;;;14.80;99.90;;;;;;4996067;28;20030;-77
2023/08/07 06:06:45;;;;;;;10.90;3.53;;;14.80;99.90;;;;;;4996166;28;20041;-77
2023/08/07 06:09:12;;;;;;;13.45;3.80;;;14.80;99.90;;;;;;4996556;28;20042;-76
2023/08/07 06:11:38;;;;;;;14.32;3.80;;;14.80;99.90;;;;;;5043281;22;20080;-78
2023/08/07 06:14:03;;;;;;;10.18;3.88;;;14.90;99.90;;;;;;5035315;28;20033;-78
2023/08/07 06:16:29;;;;;;;14.48;4.28;;;14.90;99.90;;;;;;5050602;28;20038;-78
2023/08/07 06:18:55;;;;;;;14.25;4.80;;;15.00;99.90;;;;;;5037075;28;20080;-78
2023/08/07 06:21:20;;;;;;;12.80;4.15;;;15.20;99.90;;;;;;5020465;28;20106;-78
2023/08/07 06:23:46;;;;;;;18.67;4.85;;;15.20;99.90;;;;;;5036520;28;20078;-78
2023/08/07 06:26:12;;;;;;;18.17;4.22;;;15.20;99.90;;;;;;5055116;28;20045;-78
2023/08/07 06:28:38;;;;;;;13.82;3.92;;;15.30;99.90;;;;;;5026350;28;20044;-78
2023/08/07 06:31:06;;;;;;;15.43;4.10;;;15.30;99.90;;;;;;5034148;28;20091;-77
2023/08/07 06:33:33;;;;;;;11.10;3.63;;;15.30;99.90;;;;;;5031409;28;20113;-77
2023/08/07 06:35:59;;;;;;;17.85;4.07;;;15.30;99.90;;;;;;5030386;28;20056;-78
2023/08/07 06:38:24;;;;;;;11.85;4.43;;;15.30;99.90;;;;;;5034210;28;20043;-78
2023/08/07 06:40:50;;;;;;;15.90;4.10;;;15.30;99.90;;;;;;5056578;28;20036;-78
2023/08/07 06:43:16;;;;;;;15.35;4.78;;;15.30;99.90;;;;;;5035983;28;20063;-78
2023/08/07 06:45:42;;;;;;;17.02;4.32;;;15.40;99.90;;;;;;5029415;28;20033;-77
2023/08/07 06:48:07;;;;;;;12.25;4.43;;;15.40;99.90;;;;;;5032006;28;20102;-78
2023/08/07 06:50:33;;;;;;;14.05;4.00;;;15.40;99.90;;;;;;5030249;28;20456;-78
2023/08/07 06:52:59;;;;;;;16.35;4.22;;;15.40;99.90;;;;;;5021662;28;20045;-78
2023/08/07 06:55:25;;;;;;;15.55;4.07;;;15.50;99.90;;;;;;5010734;28;20382;-78
2023/08/07 06:57:51;;;;;;;18.35;3.97;;;15.50;99.90;;;;;;5024497;28;20083;-80
2023/08/07 07:00:16;;;;;;;14.73;3.53;;;15.50;99.90;;;;;;5033190;28;20044;-79
2023/08/07 07:02:42;;;;;;;15.02;4.20;;;15.60;99.90;;;;;;5023368;28;20044;-79
2023/08/07 07:05:08;;;;;;;16.13;4.10;;;15.60;99.90;;;;;;5029567;28;20043;-79
2023/08/07 07:07:33;;;;;;;11.70;3.63;;;15.70;99.90;;;;;;5032404;28;20064;-79
2023/08/07 07:10:00;;;;;;;15.75;3.63;;;15.60;99.90;;;;;;5026387;28;20047;-80
2023/08/07 07:12:26;;;;;;;11.77;3.60;;;15.50;99.90;;;;;;5028567;28;20033;-80
2023/08/07 07:14:52;;;;;;;9.55;3.53;;;15.50;99.90;;;;;;5022288;28;20124;-80
2023/08/07 07:17:18;;;;;;;11.32;2.90;;;15.50;99.90;;;;;;5031111;28;20141;-80
2023/08/07 07:19:43;;;;;;;10.57;3.20;;;15.50;99.90;;;;;;5021923;28;20412;-80
2023/08/07 07:22:09;;;;;;;12.25;3.40;;;15.60;99.90;;;;;;5015838;28;20056;-80
2023/08/07 07:24:35;;;;;;;10.88;3.45;;;15.60;99.90;;;;;;5025654;28;20500;-80
2023/08/07 07:27:00;;;;;;;10.82;3.00;;;15.70;99.90;;;;;;5051770;28;20032;-80
2023/08/07 07:29:26;;;;;;;11.05;3.28;;;15.70;99.90;;;;;;5020078;28;20041;-80
2023/08/07 07:31:53;;;;;;;11.93;3.20;;;15.50;99.90;;;;;;5029666;28;20508;-80
2023/08/07 07:34:19;;;;;;;12.35;3.13;;;15.70;99.90;;;;;;5030815;28;20041;-80
2023/08/07 07:36:45;;;;;;;7.50;2.90;;;15.80;99.90;;;;;;5033075;28;20037;-80
2023/08/07 07:39:11;;;;;;;11.73;3.13;;;15.80;99.90;;;;;;5021694;28;20064;-80
2023/08/07 07:41:36;;;;;;;11.82;3.55;;;15.80;99.90;;;;;;5031821;28;20484;-80
2023/08/07 07:44:02;;;;;;;8.80;3.20;;;15.90;99.90;;;;;;5019937;28;20037;-81
2023/08/07 07:46:28;;;;;;;11.15;2.72;;;16.00;99.90;;;;;;5046945;28;20038;-80
2023/08/07 07:48:55;;;;;;;11.75;3.33;;;15.90;99.90;;;;;;5021865;28;20041;-80
2023/08/07 07:51:21;;;;;;;10.73;3.20;;;16.00;99.90;;;;;;5032806;28;20041;-80
2023/08/07 07:53:46;;;;;;;9.27;2.97;;;16.00;99.90;;;;;;5027087;28;20596;-80
2023/08/07 07:56:12;;;;;;;14.30;3.38;;;16.00;99.90;;;;;;5025907;28;20069;-81
2023/08/07 07:58:38;;;;;;;12.25;3.08;;;16.10;99.90;;;;;;5019384;28;20041;-80
2023/08/07 08:01:03;;;;;;;9.77;2.80;;;16.10;99.90;;;;;;5034106;28;20063;-78
2023/08/07 08:03:29;;;;;;;7.00;2.83;;;16.10;99.90;;;;;;5034359;28;20333;-79
2023/08/07 08:05:55;;;;;;;8.80;2.90;;;15.90;99.90;;;;;;5037721;28;20192;-79
2023/08/07 08:08:20;;;;;;;10.55;2.95;;;15.90;99.90;;;;;;5041702;28;20076;-79
2023/08/07 08:10:47;;;;;;;8.15;2.85;;;15.90;99.90;;;;;;5044751;28;20087;-78
2023/08/07 08:13:14;;;;;;;9.95;3.25;;;15.90;99.90;;;;;;5039243;28;20045;-78
2023/08/07 08:15:39;;;;;;;13.55;3.00;;;15.70;99.90;;;;;;5041953;28;20100;-79
2023/08/07 08:18:05;;;;;;;8.05;2.95;;;15.70;99.90;;;;;;5046317;28;20072;-78
2023/08/07 08:20:32;;;;;;;12.43;4.03;;;15.60;99.90;;;;;;5040034;28;20165;-79
2023/08/07 08:22:58;;;;;;;11.52;3.33;;;15.70;99.90;;;;;;5029422;28;20040;-80
2023/08/07 08:25:23;;;;;;;8.73;3.25;;;15.70;99.90;;;;;;5034442;28;20443;-79
2023/08/07 08:27:50;;;;;;;10.18;3.72;;;15.80;99.90;;;;;;5041439;28;20041;-79
2023/08/07 08:30:16;;;;;;;9.95;3.08;;;15.90;99.90;;;;;;5022625;28;20056;-80
2023/08/07 08:32:43;;;;;;;10.63;3.28;;;16.00;99.90;;;;;;5026496;28;20488;-80
2023/08/07 08:35:09;;;;;;;11.57;3.45;;;16.00;99.90;;;;;;5028165;28;20056;-81
2023/08/07 08:37:35;;;;;;;11.02;3.63;;;16.10;99.90;;;;;;5029675;28;20049;-81
2023/08/07 08:40:00;;;;;;;12.90;3.38;;;16.30;99.90;;;;;;5026393;28;20087;-81
2023/08/07 08:42:26;;;;;;;11.70;3.38;;;16.30;99.90;;;;;;5025610;28;20034;-79
2023/08/07 08:44:53;;;;;;;13.80;3.05;;;16.30;99.90;;;;;;5025806;28;20127;-79
2023/08/07 08:47:20;;;;;;;9.95;3.90;;;16.20;99.90;;;;;;5020954;28;20129;-78
2023/08/07 08:49:47;;;;;;;8.93;3.25;;;15.90;99.90;;;;;;5027420;28;20456;-78
2023/08/07 08:52:13;;;;;;;7.28;3.20;;;15.80;99.90;;;;;;5040036;28;20532;-77
2023/08/07 08:54:43;;;;;;;12.13;3.45;;;15.60;99.90;;;;;;5025684;28;20131;-78
2023/08/07 08:57:11;;;;;;;9.93;3.78;;;15.60;99.90;;;;;;5029661;28;20045;-79
2023/08/07 08:59:38;;;;;;;11.60;3.72;;;15.50;99.90;;;;;;5049550;28;20037;-77
2023/08/07 09:02:04;;;;;;;13.13;3.80;;;15.40;99.90;;;;;;5027221;28;20049;-78
2023/08/07 09:04:30;;;;;;;11.05;3.63;;;15.40;99.90;;;;;;5031284;28;20041;-79
2023/08/07 09:06:55;;;;;;;11.05;3.55;;;15.40;99.90;;;;;;5029161;28;20095;-77
2023/08/07 09:09:22;;;;;;;12.40;3.38;;;15.40;99.90;;;;;;5032299;28;20036;-77
2023/08/07 09:11:49;;;;;;;10.88;3.38;;;15.60;99.90;;;;;;5036542;28;20074;-78
2023/08/07 09:14:24;;;;;;;8.30;3.38;;;15.60;99.90;;;;;;5045830;28;20037;-79
2023/08/07 09:16:50;;;;;;;19.23;3.72;;;15.90;99.90;;;;;;5032194;28;20048;-81
2023/08/07 09:19:15;;;;;;;14.15;4.03;;;16.20;99.90;;;;;;5032151;28;20033;-81
2023/08/07 09:21:41;;;;;;;10.57;3.28;;;16.60;99.90;;;;;;5030104;28;20512;-80
2023/08/07 09:24:07;;;;;;;15.85;3.88;;;16.90;99.90;;;;;;5027337;28;20492;-81
2023/08/07 09:26:36;;;;;;;9.68;3.38;;;17.10;99.90;;;;;;5031773;28;20041;-81
2023/08/07 09:29:02;;;;;;;11.80;3.47;;;17.40;99.90;;;;;;5021842;28;20396;-80
2023/08/07 09:31:30;;;;;;;11.40;3.30;;;17.50;99.90;;;;;;5022880;28;20046;-79
2023/08/07 09:34:02;;;;;;;12.85;3.50;;;17.70;99.90;;;;;;5025634;28;20500;-80
2023/08/07 09:36:30;;;;;;;13.93;3.17;;;17.80;99.90;;;;;;5033626;28;20079;-79
2023/08/07 09:38:56;;;;;;;8.07;2.60;;;17.80;99.90;;;;;;5026853;28;20052;-79
2023/08/07 09:41:22;;;;;;;7.68;2.60;;;17.90;99.90;;;;;;5022449;28;20039;-79
2023/08/07 09:43:48;;;;;;;12.45;3.17;;;17.90;99.90;;;;;;5026768;28;20044;-79
2023/08/07 09:46:13;;;;;;;8.10;2.75;;;18.20;99.90;;;;;;5033527;28;20107;-78
2023/08/07 09:48:41;;;;;;;10.70;2.88;;;18.40;99.90;;;;;;5027626;28;20106;-78
2023/08/07 09:51:07;;;;;;;10.38;2.40;;;18.40;99.90;;;;;;5022117;28;20235;-78
2023/08/07 09:53:32;;;;;;;9.80;2.40;;;18.30;99.90;;;;;;5029776;28;20412;-78
2023/08/07 09:55:58;;;;;;;9.65;2.97;;;18.20;99.90;;;;;;5034903;28;20037;-78
2023/08/07 09:58:28;;;;;;;8.73;3.20;;;17.80;99.90;;;;;;5021722;28;20116;-78
2023/08/07 10:00:55;;;;;;;11.57;3.30;;;17.60;99.90;;;;;;5021797;28;20045;-78
2023/08/07 10:03:22;;;;;;;6.55;2.65;;;17.30;99.90;;;;;;5033797;28;20076;-78
2023/08/07 10:05:48;;;;;;;9.27;2.83;;;17.20;99.90;;;;;;5021109;28;20558;-78
2023/08/07 10:08:14;;;;;;;10.52;2.63;;;17.20;99.90;;;;;;5017768;28;20045;-78
2023/08/07 10:10:40;;;;;;;11.00;3.22;;;17.50;99.90;;;;;;5048230;28;20137;-78
2023/08/07 10:13:06;;;;;;;11.98;3.25;;;17.90;99.90;;;;;;5034712;28;20479;-78
2023/08/07 10:15:34;;;;;;;8.15;3.13;;;18.20;99.90;;;;;;5029465;28;20033;-77
2023/08/07 10:18:00;;;;;;;9.20;2.50;;;18.60;99.90;;;;;;5021699;28;20049;-78
2023/08/07 10:20:30;;;;;;;10.55;2.88;;;18.90;99.90;;;;;;5024721;28;20045;-78
2023/08/07 10:23:08;;;;;;;8.35;2.90;;;19.20;99.90;;;;;;5022980;28;20548;-78
2023/08/07 10:25:37;;;;;;;7.82;2.58;;;19.30;99.90;;;;;;5039799;28;20038;-78
2023/08/07 10:28:05;;;;;;;8.75;2.70;;;19.50;99.90;;;;;;5016701;28;20041;-78
2023/08/07 10:30:33;;;;;;;13.05;3.92;;;19.50;99.90;;;;;;5045227;28;20405;-78
2023/08/07 10:32:59;;;;;;;6.43;2.50;;;19.30;99.90;;;;;;5030842;28;20408;-78
2023/08/07 10:35:32;;;;;;;13.73;3.00;;;19.00;99.90;;;;;;5031649;28;20041;-78
2023/08/07 10:38:08;;;;;;;11.05;2.80;;;18.90;99.90;;;;;;5028243;28;20040;-78
2023/08/07 10:40:54;;;;;;;10.68;3.10;;;19.10;99.90;;;;;;5050541;28;20049;-78
2023/08/07 10:43:23;;;;;;;7.40;2.88;;;18.90;99.90;;;;;;5024191;28;20053;-78
2023/08/07 10:45:49;;;;;;;6.22;2.70;;;18.80;99.90;;;;;;5017031;28;20045;-78
2023/08/07 10:48:18;;;;;;;18.67;3.38;;;18.50;99.90;;;;;;5041491;28;20041;-78
2023/08/07 10:50:51;;;;;;;7.18;2.60;;;18.30;99.90;;;;;;5018455;28;20049;-78
2023/08/07 10:53:38;;;;;;;7.60;2.53;;;18.00;99.90;;;;;;5032861;28;20522;-78
2023/08/07 10:56:31;;;;;;;10.07;2.50;;;17.90;99.90;;;;;;5031026;28;20396;-78
2023/08/07 10:58:57;;;;;;;10.45;2.67;;;17.80;99.90;;;;;;5022496;28;20124;-78
2023/08/07 11:01:31;;;;;;;8.75;2.83;;;17.90;99.90;;;;;;5032439;28;20120;-78
2023/08/07 11:03:58;;;;;;;8.82;2.75;;;18.30;99.90;;;;;;5023327;28;20065;-77
2023/08/07 11:06:32;;;;;;;10.50;2.58;;;18.60;99.90;;;;;;5026624;28;20398;-78
2023/08/07 11:09:04;;;;;;;11.52;2.50;;;18.70;99.90;;;;;;5024472;28;20044;-77
2023/08/07 11:11:39;;;;;;;8.13;2.50;;;18.50;99.90;;;;;;5020765;28;20078;-78
2023/08/07 11:14:33;;;;;;;9.93;2.50;;;18.40;99.90;;;;;;5024768;28;21063;-78
2023/08/07 11:16:59;;;;;;;9.25;2.80;;;18.60;99.90;;;;;;5010908;28;20168;-78
2023/08/07 11:19:24;;;;;;;13.18;2.50;;;18.50;99.90;;;;;;5030134;28;20818;-78
2023/08/07 11:21:50;;;;;;;7.65;2.63;;;18.50;99.90;;;;;;5021535;28;20733;-78
2023/08/07 11:24:18;;;;;;;9.95;2.45;;;18.40;99.90;;;;;;5026133;28;20037;-78
2023/08/07 11:26:45;;;;;;;5.50;2.28;;;18.20;99.90;;;;;;5013654;28;20872;-78
2023/08/07 11:29:15;;;;;;;9.57;2.67;;;18.00;99.90;;;;;;5021205;28;20045;-78
2023/08/07 11:31:41;;;;;;;7.80;2.70;;;17.80;99.90;;;;;;5022766;28;20041;-78
2023/08/07 11:34:06;;;;;;;8.68;2.75;;;17.80;99.90;;;;;;5019606;28;20179;-78
2023/08/07 11:36:39;;;;;;;7.82;2.35;;;17.80;99.90;;;;;;5021638;28;20044;-78
2023/08/07 11:39:06;;;;;;;6.65;2.45;;;17.80;99.90;;;;;;5023805;28;20072;-77
2023/08/07 11:41:32;;;;;;;6.07;2.47;;;17.80;99.90;;;;;;5029625;28;20116;-78
2023/08/07 11:43:59;;;;;;;8.98;2.45;;;17.60;99.90;;;;;;5026401;28;20151;-79
2023/08/07 11:46:29;;;;;;;8.15;2.30;;;17.50;99.90;;;;;;5043272;28;20047;-79
2023/08/07 11:48:56;;;;;;;5.35;2.20;;;17.50;99.90;;;;;;5015456;28;20044;-76
2023/08/07 11:51:22;;;;;;;8.23;2.40;;;17.60;99.90;;;;;;5021692;28;20038;-76
2023/08/07 11:53:48;;;;;;;7.03;2.22;;;17.80;99.90;;;;;;5029867;28;20140;-76
2023/08/07 11:56:14;;;;;;;4.45;2.00;;;18.20;99.90;;;;;;5021442;28;20037;-76
2023/08/07 11:58:47;;;;;;;6.93;2.60;;;18.60;99.90;;;;;;5021528;28;20071;-76
2023/08/07 12:01:17;;;;;;;5.78;2.08;;;18.80;99.90;;;;;;5024983;28;20053;-76
2023/08/07 12:03:50;;;;;;;6.57;2.40;;;18.70;99.90;;;;;;5046212;28;20036;-78
2023/08/07 12:06:16;;;;;;;12.07;2.38;;;18.50;99.90;;;;;;5028767;28;20048;-78
2023/08/07 12:08:42;;;;;;;7.93;2.67;;;18.50;99.90;;;;;;5030277;28;20041;-79
2023/08/07 12:13:40;;;;;;;11.15;2.55;;;18.60;99.90;;;;;;5028243;28;20052;-65
2023/08/07 12:16:06;;;;;;;7.22;2.60;;;18.70;99.90;;;;;;5032664;28;20056;-65
2023/08/07 12:18:32;;;;;;;5.32;2.10;;;19.00;99.90;;;;;;5035795;28;20065;-66
2023/08/07 12:21:06;;;;;;;8.68;2.45;;;19.30;99.90;;;;;;5009945;28;20084;-65
2023/08/07 12:23:36;;;;;;;5.32;1.90;;;19.50;99.90;;;;;;5025795;28;20037;-65
2023/08/07 12:26:03;;;;;;;9.43;2.40;;;19.50;99.90;;;;;;5039669;28;20045;-65
2023/08/07 12:28:29;;;;;;;7.80;2.33;;;19.40;99.90;;;;;;5020108;28;20044;-65
2023/08/07 12:30:56;;;;;;;7.95;2.15;;;19.40;99.90;;;;;;5019532;28;20474;-65
2023/08/07 12:33:21;;;;;;;6.10;2.55;;;19.30;99.90;;;;;;5020019;28;20450;-71
2023/08/07 12:35:47;;;;;;;9.00;2.10;;;19.30;99.90;;;;;;5024106;28;20046;-64
2023/08/07 12:38:14;;;;;;;6.78;2.10;;;19.20;99.90;;;;;;5027668;28;20524;-64
2023/08/07 12:40:40;;;;;;;7.40;2.60;;;19.10;99.90;;;;;;5016720;28;20238;-65
2023/08/07 12:43:06;;;;;;;7.35;2.33;;;18.90;99.90;;;;;;5028940;28;20479;-65